createdAt,value
2019-04-25T00:01:24.150Z,8.57
2019-04-25T00:03:54.030Z,10.67
2019-04-25T00:06:25.340Z,10.30
2019-04-25T00:08:55.009Z,10.13
2019-04-25T00:11:24.563Z,9.43
2019-04-25T00:13:54.371Z,10.70
2019-04-25T00:16:25.643Z,10.23
2019-04-25T00:18:55.303Z,10.47
2019-04-25T00:21:42.507Z,9.97
2019-04-25T00:24:29.243Z,9.90
2019-04-25T00:26:58.841Z,10.33
2019-04-25T00:29:28.404Z,10.67
2019-04-25T00:31:58.040Z,9.43
2019-04-25T00:34:27.789Z,10.43
2019-04-25T00:36:58.752Z,10.80
2019-04-25T00:39:28.425Z,10.87
2019-04-25T00:41:57.983Z,11.77
2019-04-25T00:44:27.480Z,11.00
2019-04-25T00:46:57.008Z,10.77
2019-04-25T00:49:26.580Z,10.67
2019-04-25T00:51:56.174Z,10.47
2019-04-25T00:54:25.596Z,11.03
2019-04-25T00:56:55.089Z,10.90
2019-04-25T00:59:35.344Z,10.70
2019-04-25T01:02:07.650Z,10.20
2019-04-25T01:04:37.526Z,11.57
2019-04-25T01:07:06.955Z,11.37
2019-04-25T01:09:36.440Z,11.00
2019-04-25T01:12:09.417Z,11.07
2019-04-25T01:14:38.905Z,11.27
2019-04-25T01:17:09.538Z,10.33
2019-04-25T01:19:38.997Z,10.77
2019-04-25T01:22:09.046Z,11.20
2019-04-25T01:24:38.689Z,9.77
2019-04-25T01:27:08.943Z,9.40
2019-04-25T01:29:38.446Z,9.50
2019-04-25T01:32:09.679Z,9.53
2019-04-25T01:34:47.055Z,9.30
2019-04-25T01:37:18.404Z,9.63
2019-04-25T01:39:54.946Z,9.33
2019-04-25T01:42:31.543Z,8.67
2019-04-25T01:45:01.179Z,9.73
2019-04-25T01:47:30.833Z,9.07
2019-04-25T01:50:00.394Z,10.07
2019-04-25T01:52:29.821Z,10.53
2019-04-25T01:54:59.344Z,10.20
2019-04-25T01:57:28.788Z,10.00
2019-04-25T01:59:58.359Z,10.13
2019-04-25T02:02:29.586Z,10.30
2019-04-25T02:05:00.218Z,9.50
2019-04-25T02:07:30.013Z,10.27
2019-04-25T02:09:59.502Z,10.17
2019-04-25T02:12:30.629Z,9.70
2019-04-25T02:15:00.244Z,9.77
2019-04-25T02:17:29.875Z,11.50
2019-04-25T02:19:59.782Z,9.57
2019-04-25T02:22:29.471Z,11.23
2019-04-25T02:24:59.166Z,9.50
2019-04-25T02:27:28.710Z,10.70
2019-04-25T02:29:58.544Z,9.87
2019-04-25T02:32:28.212Z,9.27
2019-04-25T02:35:00.926Z,11.07
2019-04-25T02:37:28.980Z,9.50
2019-04-25T02:40:00.510Z,8.90
2019-04-25T02:42:29.742Z,9.93
2019-04-25T02:45:17.137Z,9.87
2019-04-25T02:48:01.429Z,10.10
2019-04-25T02:50:35.602Z,10.33
2019-04-25T02:53:14.168Z,10.93
2019-04-25T02:55:44.663Z,10.10
2019-04-25T02:58:14.323Z,10.23
2019-04-25T03:00:55.090Z,10.80
2019-04-25T03:03:16.207Z,11.17
2019-04-25T03:05:47.808Z,11.83
2019-04-25T03:08:17.124Z,11.90
2019-04-25T03:10:46.709Z,11.30
2019-04-25T03:13:16.172Z,12.67
2019-04-25T03:15:45.729Z,11.53
2019-04-25T03:18:16.918Z,12.60
2019-04-25T03:20:51.175Z,14.83
2019-04-25T03:23:35.250Z,22.30
2019-04-25T03:26:06.252Z,18.63
2019-04-25T03:28:37.309Z,18.20
2019-04-25T03:31:15.264Z,11.77
2019-04-25T03:33:39.743Z,10.67
2019-04-25T03:36:09.422Z,10.50
2019-04-25T03:38:38.950Z,10.87
2019-04-25T03:41:08.696Z,10.90
2019-04-25T03:43:38.455Z,10.77
2019-04-25T03:46:08.286Z,9.97
2019-04-25T03:48:37.897Z,9.23
2019-04-25T03:51:08.356Z,10.20
2019-04-25T03:53:38.000Z,10.77
2019-04-25T03:56:08.612Z,9.63
2019-04-25T03:58:38.440Z,9.97
2019-04-25T04:01:09.296Z,10.50
2019-04-25T04:03:39.313Z,10.97
2019-04-25T04:06:09.801Z,10.47
2019-04-25T04:08:39.396Z,9.43
2019-04-25T04:11:10.050Z,8.90
2019-04-25T04:13:39.709Z,9.30
2019-04-25T04:16:09.204Z,9.23
2019-04-25T04:18:40.356Z,9.43
2019-04-25T04:21:11.486Z,8.33
2019-04-25T04:24:04.010Z,10.13
2019-04-25T04:26:33.752Z,9.93
2019-04-25T04:29:04.679Z,10.03
2019-04-25T04:31:34.277Z,10.93
2019-04-25T04:34:03.973Z,10.47
2019-04-25T04:36:33.868Z,11.47
2019-04-25T04:39:04.167Z,10.27
2019-04-25T04:41:34.050Z,10.90
2019-04-25T04:44:04.152Z,10.27
2019-04-25T04:46:34.829Z,11.40
2019-04-25T04:49:04.327Z,11.10
2019-04-25T04:51:33.915Z,11.87
2019-04-25T04:54:03.549Z,11.83
2019-04-25T04:56:34.212Z,13.47
2019-04-25T04:59:03.863Z,11.30
2019-04-25T05:01:34.916Z,13.37
2019-04-25T05:06:56.994Z,12.87
2019-04-25T05:12:44.683Z,13.70
2019-04-25T05:15:33.363Z,15.10
2019-04-25T05:17:50.672Z,15.93
2019-04-25T05:20:50.980Z,16.60
2019-04-25T05:22:58.784Z,15.70
2019-04-25T05:25:28.457Z,16.47
2019-04-25T05:28:03.056Z,17.77
2019-04-25T05:30:57.132Z,18.37
2019-04-25T05:33:30.510Z,19.67
2019-04-25T05:36:06.912Z,21.03
2019-04-25T05:39:04.045Z,20.40
2019-04-25T05:41:25.925Z,19.50
2019-04-25T05:43:55.379Z,20.50
2019-04-25T05:46:25.468Z,17.70
2019-04-25T05:48:57.202Z,19.40
2019-04-25T05:51:26.934Z,17.67
2019-04-25T05:53:57.806Z,17.17
2019-04-25T05:56:28.297Z,19.73
2019-04-25T05:58:58.018Z,18.27
2019-04-25T06:01:29.218Z,18.00
2019-04-25T06:03:58.881Z,17.80
2019-04-25T06:06:28.531Z,17.93
2019-04-25T06:09:21.809Z,17.53
2019-04-25T06:12:05.320Z,16.97
2019-04-25T06:14:39.190Z,15.30
2019-04-25T06:17:10.487Z,17.07
2019-04-25T06:19:50.568Z,16.87
2019-04-25T06:22:24.354Z,15.33
2019-04-25T06:24:54.844Z,15.30
2019-04-25T06:27:27.037Z,14.40
2019-04-25T06:30:00.840Z,14.47
2019-04-25T06:32:29.879Z,15.90
2019-04-25T06:34:59.620Z,15.77
2019-04-25T06:37:29.195Z,16.40
2019-04-25T06:39:58.791Z,15.37
2019-04-25T06:42:28.282Z,17.97
2019-04-25T06:45:08.176Z,16.77
2019-04-25T06:47:39.387Z,17.13
2019-04-25T06:50:10.536Z,17.03
2019-04-25T06:52:40.229Z,16.40
2019-04-25T06:55:09.921Z,17.20
2019-04-25T06:57:39.561Z,17.27
2019-04-25T07:00:11.793Z,17.10
2019-04-25T07:02:41.376Z,15.33
2019-04-25T07:05:24.512Z,15.10
2019-04-25T07:07:45.253Z,17.50
2019-04-25T07:11:08.985Z,16.53
2019-04-25T07:12:56.054Z,17.93
2019-04-25T07:15:26.978Z,18.07
2019-04-25T07:17:57.236Z,17.83
2019-04-25T07:20:27.461Z,17.83
2019-04-25T07:23:04.410Z,19.27
2019-04-25T07:25:53.716Z,17.03
2019-04-25T07:28:36.009Z,16.77
2019-04-25T07:31:20.490Z,19.00
2019-04-25T07:33:56.026Z,17.07
2019-04-25T07:36:25.779Z,19.07
2019-04-25T07:39:05.863Z,18.57
2019-04-25T07:41:28.055Z,18.83
2019-04-25T07:43:57.592Z,19.27
2019-04-25T07:46:27.806Z,18.40
2019-04-25T07:48:57.335Z,18.40
2019-04-25T07:51:26.907Z,19.40
2019-04-25T07:53:56.340Z,19.10
2019-04-25T07:56:25.917Z,19.27
2019-04-25T07:58:55.521Z,19.23
2019-04-25T08:01:25.023Z,20.13
2019-04-25T08:03:54.525Z,18.90
2019-04-25T08:06:24.307Z,17.27
2019-04-25T08:08:54.573Z,17.23
2019-04-25T08:11:24.715Z,19.53
2019-04-25T08:14:14.286Z,22.43
2019-04-25T08:16:47.000Z,17.57
2019-04-25T08:19:16.560Z,19.23
2019-04-25T08:21:46.632Z,21.07
2019-04-25T08:24:16.389Z,20.17
2019-04-25T08:26:45.959Z,19.67
2019-04-25T08:29:15.492Z,20.30
2019-04-25T08:31:45.369Z,18.90
2019-04-25T08:34:16.138Z,19.33
2019-04-25T08:36:45.835Z,19.07
2019-04-25T08:39:15.407Z,18.33
2019-04-25T08:41:45.686Z,18.97
2019-04-25T08:44:16.329Z,18.77
2019-04-25T08:46:48.504Z,17.40
2019-04-25T08:49:18.634Z,15.50
2019-04-25T08:51:50.932Z,15.97
2019-04-25T08:54:31.036Z,16.30
2019-04-25T08:57:04.364Z,15.03
2019-04-25T08:59:50.482Z,16.90
2019-04-25T09:02:34.934Z,15.50
2019-04-25T09:05:24.916Z,14.40
2019-04-25T09:07:54.507Z,14.60
2019-04-25T09:10:24.055Z,16.17
2019-04-25T09:12:53.907Z,16.07
2019-04-25T09:15:24.194Z,13.47
2019-04-25T09:17:54.678Z,13.40
2019-04-25T09:20:24.639Z,13.37
2019-04-25T09:22:54.472Z,13.67
2019-04-25T09:25:24.051Z,12.87
2019-04-25T09:27:54.368Z,12.73
2019-04-25T09:30:24.629Z,12.30
2019-04-25T09:32:54.166Z,13.37
2019-04-25T09:35:23.800Z,11.63
2019-04-25T09:37:53.719Z,12.20
2019-04-25T09:40:24.115Z,11.97
2019-04-25T09:42:55.155Z,12.37
2019-04-25T09:45:43.552Z,12.70
2019-04-25T09:48:14.573Z,11.73
2019-04-25T09:50:46.384Z,12.83
2019-04-25T09:53:23.534Z,12.13
2019-04-25T09:56:06.439Z,11.20
2019-04-25T09:58:40.604Z,11.40
2019-04-25T10:01:13.889Z,10.97
2019-04-25T10:03:45.650Z,16.17
2019-04-25T10:06:17.933Z,13.07
2019-04-25T10:08:48.767Z,10.80
2019-04-25T10:11:18.456Z,10.80
2019-04-25T10:13:50.929Z,11.00
2019-04-25T10:16:20.538Z,10.90
2019-04-25T10:18:50.193Z,10.30
2019-04-25T10:21:19.996Z,10.20
2019-04-25T10:23:51.217Z,9.70
2019-04-25T10:26:22.306Z,9.47
2019-04-25T10:28:51.909Z,9.53
2019-04-25T10:31:23.764Z,9.90
2019-04-25T10:33:54.590Z,9.87
2019-04-25T10:36:25.414Z,10.47
2019-04-25T10:39:07.209Z,10.73
2019-04-25T10:41:26.368Z,10.37
2019-04-25T10:43:57.078Z,10.33
2019-04-25T10:46:26.714Z,8.73
2019-04-25T10:48:56.299Z,9.53
2019-04-25T10:51:26.074Z,9.10
2019-04-25T10:53:55.508Z,9.67
2019-04-25T10:56:25.096Z,10.23
2019-04-25T10:58:55.010Z,10.83
2019-04-25T11:01:24.990Z,10.13
2019-04-25T11:03:56.237Z,10.73
2019-04-25T11:06:30.709Z,10.00
2019-04-25T11:09:00.397Z,9.57
2019-04-25T11:11:34.890Z,9.33
2019-04-25T11:14:07.378Z,11.03
2019-04-25T11:16:35.943Z,11.07
2019-04-25T11:19:05.710Z,11.47
2019-04-25T11:21:35.509Z,10.57
2019-04-25T11:24:05.374Z,9.80
2019-04-25T11:26:34.935Z,9.60
2019-04-25T11:29:04.598Z,11.10
2019-04-25T11:31:35.916Z,10.87
2019-04-25T11:34:05.481Z,10.63
2019-04-25T11:36:35.063Z,10.03
2019-04-25T11:39:11.566Z,10.93
2019-04-25T11:41:41.136Z,10.47
2019-04-25T11:44:10.631Z,9.93
2019-04-25T11:46:40.231Z,10.43
2019-04-25T11:49:10.293Z,10.57
2019-04-25T11:51:40.089Z,10.13
2019-04-25T11:54:09.592Z,10.60
2019-04-25T11:56:39.252Z,9.90
2019-04-25T11:59:08.989Z,9.33
2019-04-25T12:01:38.629Z,9.97
2019-04-25T12:04:08.307Z,11.03
2019-04-25T12:06:37.896Z,10.17
2019-04-25T12:09:07.725Z,10.03
2019-04-25T12:11:38.858Z,10.83
2019-04-25T12:14:09.579Z,9.87
2019-04-25T12:16:39.107Z,9.87
2019-04-25T12:19:08.633Z,9.87
2019-04-25T12:21:38.200Z,10.30
2019-04-25T12:24:07.766Z,10.30
2019-04-25T12:26:37.360Z,9.83
2019-04-25T12:29:07.001Z,10.57
2019-04-25T12:31:36.670Z,9.47
2019-04-25T12:34:06.269Z,10.20
2019-04-25T12:36:37.039Z,10.47
2019-04-25T12:39:07.233Z,10.90
2019-04-25T12:41:38.414Z,9.20
2019-04-25T12:44:21.929Z,10.67
2019-04-25T12:46:54.588Z,10.13
2019-04-25T12:49:24.428Z,9.50
2019-04-25T12:51:53.990Z,10.63
2019-04-25T12:54:23.893Z,9.13
2019-04-25T12:56:53.788Z,9.70
2019-04-25T12:59:23.341Z,10.40
2019-04-25T13:01:54.533Z,10.27
2019-04-25T13:04:24.147Z,11.73
2019-04-25T13:06:54.456Z,10.17
2019-04-25T13:09:24.069Z,9.60
2019-04-25T13:11:53.734Z,9.53
2019-04-25T13:14:23.165Z,10.10
2019-04-25T13:16:52.658Z,9.00
2019-04-25T13:19:24.618Z,10.33
2019-04-25T13:21:54.395Z,9.60
2019-04-25T13:24:24.147Z,9.93
2019-04-25T13:26:56.860Z,10.87
2019-04-25T13:29:31.264Z,10.80
2019-04-25T13:32:11.322Z,9.37
2019-04-25T13:34:43.716Z,9.03
2019-04-25T13:37:14.184Z,9.70
2019-04-25T13:39:44.245Z,10.13
2019-04-25T13:42:14.401Z,10.93
2019-04-25T13:44:44.321Z,9.90
2019-04-25T13:47:14.144Z,10.50
2019-04-25T13:49:43.791Z,10.83
2019-04-25T13:52:13.442Z,10.27
2019-04-25T13:54:43.580Z,11.37
2019-04-25T13:57:13.405Z,10.10
2019-04-25T13:59:44.134Z,10.30
2019-04-25T14:02:14.263Z,10.43
2019-04-25T14:04:44.264Z,10.47
2019-04-25T14:07:14.017Z,9.90
2019-04-25T14:09:44.710Z,9.97
2019-04-25T14:12:19.143Z,10.67
2019-04-25T14:14:50.429Z,9.97
2019-04-25T14:17:27.842Z,9.17
2019-04-25T14:20:19.443Z,10.93
2019-04-25T14:22:50.979Z,10.50
2019-04-25T14:25:20.692Z,11.23
2019-04-25T14:27:50.254Z,9.23
2019-04-25T14:30:22.299Z,12.03
2019-04-25T14:32:53.662Z,8.93
2019-04-25T14:35:39.768Z,10.37
2019-04-25T14:38:09.556Z,12.10
2019-04-25T14:52:57.316Z,9.37
2019-04-25T15:01:43.817Z,9.87
2019-04-25T15:04:05.485Z,10.57
2019-04-25T15:06:37.830Z,10.73
2019-04-25T15:09:08.229Z,12.20
2019-04-25T15:11:38.174Z,9.97
2019-04-25T15:14:07.675Z,10.20
2019-04-25T15:16:37.245Z,9.33
2019-04-25T15:19:07.015Z,10.93
2019-04-25T15:21:36.536Z,10.70
2019-04-25T15:24:06.213Z,9.67
2019-04-25T15:26:35.884Z,10.23
2019-04-25T15:29:05.628Z,11.57
2019-04-25T15:31:36.772Z,10.40
2019-04-25T15:34:07.491Z,9.33
2019-04-25T15:36:38.851Z,9.90
2019-04-25T15:39:18.850Z,10.03
2019-04-25T15:41:50.071Z,9.60
2019-04-25T15:44:21.304Z,10.10
2019-04-25T15:46:52.591Z,14.33
2019-04-25T15:49:31.255Z,13.10
2019-04-25T15:52:00.915Z,11.43
2019-04-25T15:54:31.717Z,13.50
2019-04-25T15:57:11.228Z,12.73
2019-04-25T15:59:52.943Z,14.87
2019-04-25T16:04:17.103Z,11.77
2019-04-25T16:05:35.592Z,11.60
2019-04-25T16:11:21.593Z,14.40
2019-04-25T16:13:42.334Z,13.80
2019-04-25T16:16:14.042Z,13.90
2019-04-25T16:18:46.897Z,23.50
2019-04-25T16:21:16.905Z,21.53
2019-04-25T16:23:49.815Z,18.30
2019-04-25T16:26:19.628Z,19.93
2019-04-25T16:28:51.273Z,13.10
2019-04-25T16:31:22.528Z,14.67
2019-04-25T16:33:52.029Z,11.90
2019-04-25T16:36:21.700Z,13.23
2019-04-25T16:38:51.337Z,11.63
2019-04-25T16:41:21.677Z,12.13
2019-04-25T16:43:52.968Z,10.77
2019-04-25T16:46:23.439Z,11.10
2019-04-25T16:48:53.031Z,10.70
2019-04-25T16:51:37.923Z,9.73
2019-04-25T16:54:09.240Z,10.10
2019-04-25T16:56:43.566Z,11.73
2019-04-25T16:59:14.911Z,11.20
2019-04-25T17:01:44.849Z,11.43
2019-04-25T17:04:14.726Z,11.07
2019-04-25T17:06:45.607Z,10.57
2019-04-25T17:09:15.428Z,9.50
2019-04-25T17:11:45.078Z,11.70
2019-04-25T17:14:16.263Z,10.63
2019-04-25T17:17:06.631Z,10.87
2019-04-25T17:19:40.914Z,11.67
2019-04-25T17:22:10.491Z,12.77
2019-04-25T17:24:41.172Z,14.10
2019-04-25T17:27:11.100Z,15.10
2019-04-25T17:29:40.526Z,13.83
2019-04-25T17:32:18.786Z,13.17
2019-04-25T17:35:04.646Z,12.43
2019-04-25T17:37:36.434Z,13.70
2019-04-25T17:40:08.343Z,14.37
2019-04-25T17:42:38.897Z,13.73
2019-04-25T17:45:10.756Z,14.83
2019-04-25T17:47:51.750Z,16.63
2019-04-25T17:50:11.698Z,16.77
2019-04-25T17:52:41.239Z,14.73
2019-04-25T17:55:11.508Z,16.33
2019-04-25T17:57:42.034Z,16.37
2019-04-25T18:00:28.345Z,16.90
2019-04-25T18:03:00.782Z,16.33
2019-04-25T18:05:30.423Z,16.60
2019-04-25T18:07:59.973Z,16.73
2019-04-25T18:10:29.517Z,16.43
2019-04-25T18:12:59.043Z,16.80
2019-04-25T18:15:30.227Z,14.77
2019-04-25T18:18:01.196Z,15.73
2019-04-25T18:20:32.504Z,16.73
2019-04-25T18:23:18.602Z,17.23
2019-04-25T18:26:06.062Z,17.20
2019-04-25T18:28:40.056Z,17.43
2019-04-25T18:31:09.653Z,19.47
2019-04-25T18:33:39.442Z,19.63
2019-04-25T18:36:16.638Z,16.90
2019-04-25T18:38:47.702Z,15.80
2019-04-25T18:41:18.946Z,15.10
2019-04-25T18:43:53.073Z,15.47
2019-04-25T18:46:24.313Z,15.80
2019-04-25T18:48:53.894Z,15.67
2019-04-25T18:51:23.520Z,15.37
2019-04-25T18:53:57.728Z,16.00
2019-04-25T18:56:28.920Z,16.53
2019-04-25T18:59:05.917Z,16.60
2019-04-25T19:01:53.310Z,18.67
2019-04-25T19:04:27.664Z,15.93
2019-04-25T19:06:58.337Z,15.43
2019-04-25T19:09:28.108Z,17.03
2019-04-25T19:11:57.745Z,16.37
2019-04-25T19:14:27.434Z,15.57
2019-04-25T19:16:57.478Z,16.50
2019-04-25T19:19:27.073Z,15.40
2019-04-25T19:21:58.764Z,17.93
2019-04-25T19:24:28.180Z,15.17
2019-04-25T19:26:57.719Z,17.30
2019-04-25T19:29:27.363Z,16.47
2019-04-25T19:31:56.996Z,17.57
2019-04-25T19:34:26.519Z,16.30
2019-04-25T19:36:56.170Z,17.17
2019-04-25T19:39:27.521Z,16.33
2019-04-25T19:42:16.851Z,17.60
2019-04-25T19:44:47.199Z,16.60
2019-04-25T19:47:17.219Z,16.83
2019-04-25T19:49:48.147Z,17.50
2019-04-25T19:58:11.572Z,15.87
2019-04-25T20:00:41.556Z,16.53
2019-04-25T20:03:20.040Z,16.37
2019-04-25T20:05:51.280Z,17.53
2019-04-25T20:08:28.439Z,16.87
2019-04-25T20:10:59.679Z,17.17
2019-04-25T20:13:29.270Z,17.50
2019-04-25T20:16:00.140Z,18.07
2019-04-25T20:18:30.872Z,16.13
2019-04-25T20:21:00.551Z,16.90
2019-04-25T20:23:30.464Z,16.07
2019-04-25T20:26:00.135Z,16.03
2019-04-25T20:28:31.149Z,16.80
2019-04-25T20:31:02.266Z,16.30
2019-04-25T20:33:31.795Z,17.33
2019-04-25T20:36:01.365Z,16.10
2019-04-25T20:38:30.797Z,16.50
2019-04-25T20:41:00.430Z,16.83
2019-04-25T20:43:30.116Z,17.10
2019-04-25T20:45:59.950Z,17.40
2019-04-25T20:48:29.475Z,17.93
2019-04-25T20:50:59.119Z,16.10
2019-04-25T20:53:28.576Z,16.67
2019-04-25T20:55:58.239Z,16.20
2019-04-25T20:58:27.674Z,18.67
2019-04-25T21:00:58.026Z,18.43
2019-04-25T21:03:27.399Z,16.53
2019-04-25T21:05:58.740Z,17.87
2019-04-25T21:08:28.248Z,17.07
2019-04-25T21:10:57.912Z,16.00
2019-04-25T21:13:32.646Z,16.63
2019-04-25T21:16:15.817Z,15.30
2019-04-25T21:18:53.181Z,16.80
2019-04-25T21:21:22.801Z,16.33
2019-04-25T21:23:53.022Z,16.13
2019-04-25T21:26:22.668Z,16.23
2019-04-25T21:28:52.267Z,15.73
2019-04-25T21:31:22.901Z,16.40
2019-04-25T21:33:52.824Z,15.23
2019-04-25T21:36:22.552Z,16.00
2019-04-25T21:38:53.599Z,16.60
2019-04-25T21:41:41.553Z,17.93
2019-04-25T21:44:11.402Z,16.23
2019-04-25T21:46:40.902Z,16.33
2019-04-25T21:49:10.963Z,15.83
2019-04-25T21:51:40.520Z,15.10
2019-04-25T21:54:10.060Z,16.33
2019-04-25T21:56:40.021Z,16.33
2019-04-25T21:59:09.966Z,17.53
2019-04-25T22:01:43.601Z,15.47
2019-04-25T22:04:13.476Z,15.93
2019-04-25T22:06:43.382Z,17.37
2019-04-25T22:09:22.833Z,16.17
2019-04-25T22:11:52.678Z,16.00
2019-04-25T22:14:22.489Z,15.53
2019-04-25T22:16:52.377Z,15.43
2019-04-25T22:19:22.226Z,16.20
2019-04-25T22:21:52.096Z,16.23
2019-04-25T22:24:21.989Z,15.33
2019-04-25T22:26:53.364Z,16.40
2019-04-25T22:29:23.103Z,14.60
2019-04-25T22:31:59.272Z,15.73
2019-04-25T22:34:31.101Z,15.53
2019-04-25T22:37:02.116Z,15.33
2019-04-25T22:39:31.743Z,15.40
2019-04-25T22:42:01.929Z,15.50
2019-04-25T22:44:33.019Z,15.63
2019-04-25T22:47:02.762Z,16.10
2019-04-25T22:49:32.292Z,14.73
2019-04-25T22:52:03.293Z,14.67
2019-04-25T22:54:32.909Z,14.67
2019-04-25T22:57:02.644Z,14.77
2019-04-25T22:59:32.537Z,14.57
2019-04-25T23:02:18.732Z,16.20
2019-04-25T23:05:09.024Z,14.13
2019-04-25T23:07:34.475Z,14.33
2019-04-25T23:10:08.366Z,14.23
2019-04-25T23:12:38.332Z,15.60
2019-04-25T23:15:08.796Z,15.00
2019-04-25T23:17:38.421Z,15.13
2019-04-25T23:20:08.256Z,13.93
2019-04-25T23:22:38.001Z,14.23
2019-04-25T23:25:09.977Z,14.23
2019-04-25T23:27:41.348Z,14.60
2019-04-25T23:30:12.826Z,14.13
2019-04-25T23:32:42.371Z,14.57
2019-04-25T23:35:24.270Z,14.83
2019-04-25T23:37:43.320Z,15.33
2019-04-25T23:40:13.720Z,14.03
2019-04-25T23:42:43.428Z,14.50
2019-04-25T23:45:13.136Z,13.40
2019-04-25T23:47:42.977Z,13.97
2019-04-25T23:50:12.891Z,14.50
2019-04-25T23:52:42.366Z,14.03
2019-04-25T23:55:12.825Z,14.47
2019-04-25T23:57:42.636Z,14.80
